Time;durP1;ratioP1;P1;durP2;ratioP2;P2;SDS_P1;SDS_P2;PMS_P1;PMS_P2;Temp;Humidity;BMP_temperature;BMP_pressure;BME280_temperature;BME280_humidity;BME280_pressure;Samples;Min_cycle;Max_cycle;Signal;HPM_P1;HPM_P2
2022/08/17 00:02:03;;;;;;;5.32;4.82;;;;;;;28.01;44.48;100988.44;5045286;28;20030;-59
2022/08/17 00:04:28;;;;;;;5.63;5.13;;;;;;;28.00;44.73;100986.78;5027694;28;20029;-59
2022/08/17 00:06:54;;;;;;;5.47;4.97;;;;;;;27.99;44.60;100976.88;5027602;28;20029;-59
2022/08/17 00:09:19;;;;;;;6.47;5.78;;;;;;;28.00;44.68;100975.84;5044768;28;20053;-59
2022/08/17 00:11:46;;;;;;;5.90;5.00;;;;;;;27.99;44.42;100974.16;5044977;28;20090;-59
2022/08/17 00:14:14;;;;;;;6.15;5.63;;;;;;;27.98;44.27;100973.31;5045294;28;20036;-59
2022/08/17 00:16:47;;;;;;;5.97;5.15;;;;;;;27.98;44.72;100975.22;5027509;28;20025;-60
2022/08/17 00:19:14;;;;;;;5.65;5.15;;;;;;;27.98;44.42;100980.69;5027485;28;20036;-59
2022/08/17 00:21:45;;;;;;;5.13;4.63;;;;;;;27.97;44.62;100979.03;5027629;28;20025;-60
2022/08/17 00:24:11;;;;;;;4.95;4.55;;;;;;;27.96;44.25;100988.28;5044685;28;20021;-59
2022/08/17 00:26:36;;;;;;;5.70;5.20;;;;;;;27.80;44.59;100960.50;5027581;28;20030;-59
2022/08/17 00:29:02;;;;;;;5.43;4.93;;;;;;;27.95;44.32;100992.91;5027121;28;20027;-59
2022/08/17 00:31:27;;;;;;;5.13;4.63;;;;;;;27.96;44.48;101002.78;5027501;28;20025;-60
2022/08/17 00:33:52;;;;;;;5.38;4.82;;;;;;;27.96;44.27;100991.03;5045066;28;20021;-60
2022/08/17 00:36:18;;;;;;;5.55;5.10;;;;;;;27.94;44.28;100988.50;5014475;28;20026;-60
2022/08/17 00:38:43;;;;;;;5.38;4.95;;;;;;;27.96;44.47;101007.41;5048503;28;20539;-60
2022/08/17 00:41:15;;;;;;;5.82;5.32;;;;;;;27.95;44.05;101001.13;5049128;28;20421;-60
2022/08/17 00:43:45;;;;;;;6.30;5.00;;;;;;;27.94;44.20;100993.13;5031138;28;20029;-60
2022/08/17 00:46:21;;;;;;;5.97;5.40;;;;;;;27.92;44.22;100990.63;5031365;28;20022;-60
2022/08/17 00:48:47;;;;;;;6.20;5.60;;;;;;;27.94;44.07;101001.31;5031030;28;20051;-60
2022/08/17 00:51:26;;;;;;;5.82;5.32;;;;;;;27.94;44.44;100998.59;5040835;28;20037;-60
2022/08/17 00:53:59;;;;;;;5.95;5.38;;;;;;;27.93;44.40;101007.88;5028319;28;20046;-60
2022/08/17 00:56:29;;;;;;;5.65;5.18;;;;;;;27.91;44.51;100999.91;5011712;28;20034;-60
2022/08/17 00:58:55;;;;;;;5.70;5.07;;;;;;;27.91;44.11;100988.97;4994756;28;20033;-60
2022/08/17 01:01:21;;;;;;;5.82;5.22;;;;;;;27.90;44.42;100987.28;5029022;28;20055;-60
2022/08/17 01:03:48;;;;;;;5.65;5.07;;;;;;;27.89;44.46;100986.44;5036157;28;20084;-60
2022/08/17 01:06:13;;;;;;;6.18;5.03;;;;;;;27.89;44.32;100994.66;5011189;28;20014;-60
2022/08/17 01:08:39;;;;;;;5.30;4.80;;;;;;;27.71;44.06;100963.72;5027989;28;20091;-60
2022/08/17 01:11:05;;;;;;;5.97;5.38;;;;;;;27.88;43.97;100992.97;5010614;28;20037;-60
2022/08/17 01:13:35;;;;;;;5.60;5.05;;;;;;;27.73;44.31;100964.34;5010745;28;20013;-60
2022/08/17 01:16:04;;;;;;;5.57;4.97;;;;;;;27.89;44.06;100980.16;5011082;28;20026;-60
2022/08/17 01:18:30;;;;;;;5.75;5.18;;;;;;;27.67;44.28;100942.31;5010881;28;20029;-60
2022/08/17 01:20:58;;;;;;;5.03;4.63;;;;;;;27.88;44.00;100973.03;5030608;28;20032;-60
2022/08/17 01:23:26;;;;;;;6.15;5.50;;;;;;;27.87;44.04;100969.47;5029530;28;20021;-60
2022/08/17 01:25:54;;;;;;;6.05;5.32;;;;;;;27.86;44.09;100964.19;5030539;28;20026;-60
2022/08/17 01:28:20;;;;;;;5.47;4.97;;;;;;;27.70;44.09;100934.72;5047826;28;20025;-60
2022/08/17 01:30:46;;;;;;;5.55;5.00;;;;;;;27.86;44.33;100959.56;5030489;28;20035;-60
2022/08/17 01:33:12;;;;;;;5.20;4.70;;;;;;;27.69;43.91;100930.31;5030145;28;20065;-59
2022/08/17 01:35:38;;;;;;;5.50;5.00;;;;;;;27.83;44.10;100957.31;5028939;28;20093;-59
2022/08/17 01:38:03;;;;;;;5.25;4.75;;;;;;;27.84;44.32;100950.78;5010081;28;20038;-59
2022/08/17 01:40:33;;;;;;;5.75;5.13;;;;;;;27.83;44.34;100959.22;5027866;28;20029;-60
2022/08/17 01:43:03;;;;;;;5.63;5.13;;;;;;;27.68;44.00;100934.94;5010348;28;20056;-59
2022/08/17 01:45:32;;;;;;;5.95;5.45;;;;;;;27.83;44.14;100954.56;5010444;28;20533;-59
2022/08/17 01:47:58;;;;;;;5.93;5.35;;;;;;;27.64;44.07;100933.72;5010137;28;20030;-59
2022/08/17 01:50:29;;;;;;;5.97;5.20;;;;;;;27.65;43.95;100935.38;5010230;28;20048;-59
2022/08/17 01:52:58;;;;;;;5.40;5.00;;;;;;;27.82;44.35;100966.53;5027422;28;20046;-59
2022/08/17 01:55:31;;;;;;;7.05;5.60;;;;;;;27.82;44.35;100963.81;5009617;28;20041;-59
2022/08/17 01:57:58;;;;;;;5.82;5.32;;;;;;;27.82;44.10;100962.97;5010235;28;20073;-59
2022/08/17 02:00:24;;;;;;;5.70;5.20;;;;;;;27.65;44.03;100940.84;5027662;28;20033;-60
2022/08/17 02:02:49;;;;;;;6.18;5.57;;;;;;;27.64;43.95;100940.03;4993543;28;20041;-60
2022/08/17 02:05:14;;;;;;;6.50;5.93;;;;;;;27.81;43.93;100969.50;5027812;28;20052;-60
2022/08/17 02:07:40;;;;;;;5.53;5.03;;;;;;;27.78;43.91;100957.16;5009677;28;20025;-60
2022/08/17 02:10:07;;;;;;;5.13;4.68;;;;;;;27.79;44.39;100947.06;5030949;28;20032;-60
2022/08/17 02:12:34;;;;;;;7.72;5.70;;;;;;;27.80;44.07;100940.53;5047014;28;20029;-61
2022/08/17 02:14:59;;;;;;;6.25;5.65;;;;;;;27.59;44.22;100907.09;5047033;28;20057;-59
2022/08/17 02:17:25;;;;;;;5.95;5.45;;;;;;;27.79;44.30;100938.88;5012848;28;20022;-60
2022/08/17 02:19:50;;;;;;;5.55;5.03;;;;;;;27.78;44.36;100932.56;5029320;28;20494;-59
2022/08/17 02:22:17;;;;;;;5.45;4.95;;;;;;;27.78;44.20;100935.31;5029198;28;20025;-59
2022/08/17 02:24:42;;;;;;;5.60;5.10;;;;;;;27.78;44.23;100932.56;5012434;28;20021;-59
2022/08/17 02:27:08;;;;;;;7.03;5.47;;;;;;;27.72;43.97;100930.69;5029195;28;20036;-59
2022/08/17 02:29:33;;;;;;;6.00;5.32;;;;;;;27.72;44.37;100927.13;5046816;28;20029;-59
2022/08/17 02:32:00;;;;;;;5.80;5.28;;;;;;;27.59;43.98;100900.81;5046983;28;20073;-59
2022/08/17 02:34:26;;;;;;;5.95;5.43;;;;;;;27.76;44.00;100931.13;5029163;28;20032;-59
2022/08/17 02:36:52;;;;;;;6.22;5.35;;;;;;;27.75;44.18;100935.75;5028859;28;20089;-60
2022/08/17 02:39:17;;;;;;;6.10;5.50;;;;;;;27.76;44.21;100933.84;5028666;28;20026;-59
2022/08/17 02:41:43;;;;;;;5.53;5.03;;;;;;;27.57;44.39;100897.44;5046688;28;20029;-59
2022/08/17 02:44:09;;;;;;;6.30;5.70;;;;;;;27.75;44.13;100922.09;5046559;28;20075;-59
2022/08/17 02:46:34;;;;;;;5.70;5.20;;;;;;;27.75;44.18;100921.25;5046674;28;20017;-59
2022/08/17 02:49:00;;;;;;;5.75;5.15;;;;;;;27.58;44.14;100896.41;5011999;28;20477;-59
2022/08/17 02:51:25;;;;;;;5.35;4.85;;;;;;;27.74;44.20;100920.44;5046672;28;20032;-60
2022/08/17 02:53:51;;;;;;;5.60;5.10;;;;;;;27.74;44.10;100928.63;5027812;28;20049;-60
2022/08/17 02:56:16;;;;;;;7.25;5.57;;;;;;;27.73;43.80;100920.63;5028634;28;20048;-60
2022/08/17 02:58:42;;;;;;;5.70;5.20;;;;;;;27.73;44.10;100921.47;5027683;28;20025;-60
2022/08/17 03:01:08;;;;;;;5.80;5.20;;;;;;;27.72;44.33;100919.78;5046381;28;20072;-60
2022/08/17 03:03:34;;;;;;;5.75;5.15;;;;;;;27.72;44.40;100935.34;5028374;28;20494;-60
2022/08/17 03:06:00;;;;;;;5.60;5.10;;;;;;;27.73;43.95;100934.28;5028557;28;20037;-60
2022/08/17 03:08:26;;;;;;;6.20;5.68;;;;;;;27.72;44.07;100932.59;5027726;28;20029;-59
2022/08/17 03:10:51;;;;;;;5.70;5.20;;;;;;;27.72;43.98;100930.69;5036061;28;20018;-60
2022/08/17 03:13:16;;;;;;;5.53;5.00;;;;;;;27.71;44.16;100926.31;5025969;28;20034;-60
2022/08/17 03:15:46;;;;;;;6.10;5.07;;;;;;;27.70;43.81;100930.09;5008700;28;20029;-60
2022/08/17 03:18:13;;;;;;;7.15;5.60;;;;;;;27.70;44.10;100938.31;5008752;28;20052;-60
2022/08/17 03:20:39;;;;;;;6.03;5.40;;;;;;;27.71;43.86;100928.22;5008845;28;20030;-60
2022/08/17 03:23:04;;;;;;;6.10;5.50;;;;;;;27.69;43.83;100936.59;5026178;28;20037;-60
2022/08/17 03:25:32;;;;;;;5.78;5.20;;;;;;;27.68;44.19;100932.22;5008418;28;20454;-60
2022/08/17 03:27:58;;;;;;;5.90;5.40;;;;;;;27.69;43.77;100935.78;5009223;28;20044;-59
2022/08/17 03:30:24;;;;;;;5.75;5.10;;;;;;;27.67;44.30;100927.81;5009985;28;20034;-59
2022/08/17 03:32:53;;;;;;;5.22;4.80;;;;;;;27.68;43.98;100926.75;4994792;28;20022;-60
2022/08/17 03:35:19;;;;;;;;;;;;;;;27.66;44.22;100929.72;4993868;28;20018;-59
2022/08/17 03:37:45;;;;;;;6.03;5.43;;;;;;;27.67;44.24;100936.84;5007777;28;19968;-60
2022/08/17 03:40:11;;;;;;;5.53;4.90;;;;;;;27.66;43.93;100932.44;5025759;28;20061;-60
2022/08/17 03:42:38;;;;;;;5.35;4.90;;;;;;;27.66;44.04;100937.09;5007873;28;20026;-60
2022/08/17 03:45:06;;;;;;;6.05;5.38;;;;;;;27.64;43.99;100929.09;5008073;28;20483;-60
2022/08/17 03:56:41;;;;;;;6.40;5.80;;;;;;;27.64;44.13;100936.47;5025963;28;20060;-60
2022/08/17 03:58:38;;;;;;;5.78;5.28;;;;;;;27.63;43.97;100927.44;5010560;28;19992;-60
2022/08/17 04:01:04;;;;;;;5.93;5.40;;;;;;;27.46;44.21;100901.78;5025458;28;20029;-61
2022/08/17 04:03:30;;;;;;;6.03;5.43;;;;;;;27.44;44.20;100895.69;5007997;28;20476;-60
2022/08/17 04:05:55;;;;;;;6.07;5.47;;;;;;;27.45;44.18;100904.75;5025642;28;20061;-60
2022/08/17 04:08:20;;;;;;;5.63;5.13;;;;;;;27.61;44.34;100945.09;5007288;28;20068;-60
2022/08/17 04:10:46;;;;;;;5.20;4.78;;;;;;;27.41;44.30;100907.09;5034248;28;20032;-60
2022/08/17 04:13:11;;;;;;;5.85;5.35;;;;;;;27.60;43.91;100946.16;5045039;28;20072;-59
2022/08/17 04:15:37;;;;;;;5.22;4.72;;;;;;;27.59;44.39;100926.22;5027535;28;20036;-59
2022/08/17 04:18:02;;;;;;;6.03;5.25;;;;;;;27.44;44.09;100903.06;5045028;28;20057;-59
2022/08/17 04:20:28;;;;;;;5.63;5.00;;;;;;;27.60;44.09;100927.03;5045082;28;20025;-59
2022/08/17 04:23:07;;;;;;;5.78;5.28;;;;;;;27.58;44.17;100931.91;5027270;28;20034;-59
2022/08/17 04:25:35;;;;;;;5.75;5.25;;;;;;;27.60;44.01;100933.34;5027283;28;20099;-60
2022/08/17 04:28:00;;;;;;;6.43;5.82;;;;;;;27.39;44.23;100901.00;5044988;28;20072;-59
2022/08/17 04:30:28;;;;;;;5.65;5.15;;;;;;;27.42;44.12;100901.38;5027331;28;20021;-61
2022/08/17 04:33:04;;;;;;;5.60;4.97;;;;;;;27.60;44.27;100924.31;5027058;28;20055;-59
2022/08/17 04:35:33;;;;;;;5.10;4.60;;;;;;;27.59;44.16;100934.41;5045144;28;20030;-59
2022/08/17 04:37:58;;;;;;;5.40;4.47;;;;;;;27.54;44.04;100936.16;5044382;28;20025;-59
2022/08/17 04:43:12;;;;;;;5.82;5.32;;;;;;;27.58;43.92;100946.41;5044770;28;20028;-60
2022/08/17 04:45:39;;;;;;;6.00;5.43;;;;;;;27.58;44.02;100942.84;5027328;28;20029;-60
2022/08/17 04:48:04;;;;;;;5.57;5.07;;;;;;;27.54;44.12;100938.88;5026832;28;20025;-60
2022/08/17 04:50:29;;;;;;;5.90;5.40;;;;;;;27.37;44.00;100909.44;5027296;28;20091;-60
2022/08/17 04:52:54;;;;;;;5.75;5.20;;;;;;;27.37;44.20;100909.44;5026586;28;20049;-60
2022/08/17 04:55:20;;;;;;;6.07;5.57;;;;;;;27.36;44.01;100907.75;5026743;28;20026;-60
2022/08/17 04:57:45;;;;;;;5.82;5.25;;;;;;;27.56;44.19;100945.78;5044385;28;20484;-60
2022/08/17 05:00:11;;;;;;;6.20;5.28;;;;;;;27.36;44.18;100921.41;5010678;28;20514;-60
2022/08/17 05:02:47;;;;;;;5.95;5.45;;;;;;;27.35;44.21;100913.44;5026810;28;20036;-60
2022/08/17 05:05:17;;;;;;;5.97;5.38;;;;;;;27.37;44.20;100934.00;5026348;28;20052;-60
2022/08/17 05:07:42;;;;;;;6.28;5.65;;;;;;;27.54;44.20;100963.47;5028092;28;20026;-60
2022/08/17 05:10:08;;;;;;;6.20;5.60;;;;;;;27.55;44.35;100965.97;5028105;28;20112;-59
2022/08/17 05:12:33;;;;;;;6.65;5.38;;;;;;;27.54;44.02;100964.31;5044286;28;20025;-60
2022/08/17 05:14:59;;;;;;;5.72;5.22;;;;;;;27.37;44.44;100933.16;5044372;28;20448;-59
2022/08/17 05:17:24;;;;;;;6.32;5.72;;;;;;;27.53;44.14;100931.75;5044208;28;20103;-59
2022/08/17 05:19:49;;;;;;;5.70;5.20;;;;;;;27.54;44.01;100933.44;5026290;28;20025;-59
2022/08/17 05:22:14;;;;;;;6.25;5.65;;;;;;;27.52;44.01;100932.81;5029705;28;20033;-60
2022/08/17 05:24:40;;;;;;;5.82;5.32;;;;;;;27.38;44.44;100915.72;5047563;28;20040;-59
2022/08/17 05:27:05;;;;;;;6.32;5.72;;;;;;;27.52;44.14;100939.09;5030481;28;20036;-59
2022/08/17 05:29:30;;;;;;;6.78;5.90;;;;;;;27.52;44.05;100938.25;5047779;28;20055;-59
2022/08/17 05:31:55;;;;;;;5.75;5.20;;;;;;;27.33;44.23;100908.22;5030572;28;20017;-59
2022/08/17 05:34:21;;;;;;;5.90;5.35;;;;;;;27.46;44.57;100937.28;5013543;28;20041;-59
2022/08/17 05:36:46;;;;;;;6.05;5.45;;;;;;;27.51;44.42;100942.88;5029946;28;20025;-59
2022/08/17 05:39:13;;;;;;;6.13;5.55;;;;;;;27.51;44.26;100944.78;5013089;28;20022;-59
2022/08/17 05:41:38;;;;;;;6.07;5.47;;;;;;;27.36;44.16;100921.41;5029813;28;20120;-59
2022/08/17 05:44:04;;;;;;;5.28;4.78;;;;;;;27.51;44.60;100939.34;5029828;28;20476;-60
2022/08/17 05:46:33;;;;;;;6.38;5.78;;;;;;;27.51;44.53;100945.63;5030041;28;20076;-60
2022/08/17 05:49:03;;;;;;;5.85;5.28;;;;;;;27.51;44.74;100947.53;5012851;28;20033;-59
2022/08/17 05:52:00;;;;;;;6.50;5.50;;;;;;;27.53;44.58;100953.63;5030257;28;20021;-59
2022/08/17 05:54:56;;;;;;;6.45;5.85;;;;;;;27.52;44.55;100968.31;5029254;28;20045;-59
2022/08/17 05:57:39;;;;;;;6.38;5.78;;;;;;;27.51;44.68;100977.56;5029725;28;20217;-59
2022/08/17 06:00:24;;;;;;;6.53;5.85;;;;;;;27.51;44.83;100988.50;5047121;28;20033;-59
2022/08/17 06:02:58;;;;;;;5.82;5.22;;;;;;;27.50;45.08;100998.56;5047069;28;20025;-59
2022/08/17 06:05:51;;;;;;;6.35;5.75;;;;;;;27.50;45.06;101012.22;5029766;28;20033;-59
2022/08/17 06:08:29;;;;;;;6.38;5.78;;;;;;;27.50;45.03;101003.22;5046892;28;20025;-59
2022/08/17 06:11:01;;;;;;;6.13;5.53;;;;;;;27.49;44.83;100996.09;5036369;28;20459;-59
2022/08/17 06:13:39;;;;;;;6.78;6.07;;;;;;;27.49;44.81;100982.44;5026878;28;20060;-59
2022/08/17 06:16:10;;;;;;;6.43;5.68;;;;;;;27.49;44.91;100988.72;5027261;28;20025;-59
2022/08/17 06:18:50;;;;;;;6.22;5.63;;;;;;;27.49;44.79;100986.00;5009303;28;20029;-59
2022/08/17 06:21:17;;;;;;;6.13;5.53;;;;;;;27.32;45.01;100960.31;5009712;28;20030;-59
2022/08/17 06:23:51;;;;;;;6.32;5.72;;;;;;;27.46;44.85;100980.13;5026395;28;20030;-59
2022/08/17 06:26:20;;;;;;;6.97;5.35;;;;;;;27.29;45.19;100947.09;5009620;28;20028;-59
2022/08/17 06:28:50;;;;;;;6.43;5.78;;;;;;;27.49;44.99;100976.97;5009055;28;20025;-59
2022/08/17 06:31:21;;;;;;;6.60;6.00;;;;;;;27.48;45.22;100980.72;5009528;28;20033;-59
2022/08/17 06:33:47;;;;;;;6.57;5.97;;;;;;;27.49;45.30;100979.69;5008092;28;20026;-59
2022/08/17 06:36:25;;;;;;;5.88;5.35;;;;;;;27.47;45.20;100979.91;5009634;28;20025;-59
2022/08/17 06:39:21;;;;;;;7.40;5.93;;;;;;;27.47;45.04;100979.91;5026260;28;20022;-59
2022/08/17 06:42:05;;;;;;;5.72;5.22;;;;;;;27.47;45.36;100982.63;5026714;28;20028;-60
2022/08/17 06:44:50;;;;;;;6.70;5.68;;;;;;;27.47;45.22;100985.38;5009329;28;20018;-59
2022/08/17 06:47:24;;;;;;;6.10;5.53;;;;;;;27.28;45.43;100959.91;5009556;28;20112;-59
2022/08/17 06:49:55;;;;;;;5.18;4.68;;;;;;;27.47;45.45;100985.38;5008844;28;20555;-58
2022/08/17 06:52:26;;;;;;;6.65;5.75;;;;;;;27.47;45.39;100999.03;5026691;28;20018;-60
2022/08/17 06:55:00;;;;;;;5.93;5.40;;;;;;;27.48;45.44;101002.59;5008619;28;20085;-60
2022/08/17 06:57:31;;;;;;;5.90;5.40;;;;;;;27.47;45.40;101026.31;5026667;28;20025;-60
2022/08/17 07:00:15;;;;;;;8.55;5.05;;;;;;;27.48;45.52;101024.44;4991830;28;20340;-60
2022/08/17 07:02:55;;;;;;;6.38;5.88;;;;;;;27.48;45.27;101014.34;4992794;28;20048;-60
2022/08/17 07:05:42;;;;;;;5.45;4.95;;;;;;;27.47;45.69;101004.47;5026212;28;20048;-60
2022/08/17 07:08:15;;;;;;;5.88;5.38;;;;;;;27.47;45.37;101020.03;5026041;28;20084;-59
2022/08/17 07:10:52;;;;;;;6.38;5.75;;;;;;;27.46;45.47;101019.19;5001130;28;20031;-59
2022/08/17 07:13:51;;;;;;;7.53;5.05;;;;;;;27.46;45.61;101008.28;5027896;28;20017;-59
2022/08/17 07:16:48;;;;;;;5.95;5.40;;;;;;;27.47;45.60;101022.75;5010812;28;20044;-59
2022/08/17 07:19:16;;;;;;;6.05;5.45;;;;;;;27.45;45.80;101009.34;5027865;28;20030;-59
2022/08/17 07:22:00;;;;;;;5.78;5.22;;;;;;;27.45;45.59;101005.78;5045972;28;20467;-59
2022/08/17 07:24:43;;;;;;;6.30;5.70;;;;;;;27.46;45.52;101008.28;5027474;28;20121;-59
2022/08/17 07:27:13;;;;;;;5.75;5.25;;;;;;;27.46;45.73;101007.44;5045759;28;20021;-59
2022/08/17 07:29:43;;;;;;;6.18;5.40;;;;;;;27.47;45.52;100995.44;5027663;28;20490;-59
2022/08/17 07:32:10;;;;;;;5.28;4.78;;;;;;;27.26;45.89;100964.75;5028288;28;20056;-59
2022/08/17 07:35:09;;;;;;;6.07;5.47;;;;;;;27.48;45.85;101002.59;5027988;28;20548;-59
2022/08/17 07:37:38;;;;;;;6.13;5.53;;;;;;;27.48;45.80;100999.84;5026800;28;20045;-59
2022/08/17 07:40:28;;;;;;;5.40;4.90;;;;;;;27.32;45.97;100985.72;5027169;28;20490;-59
2022/08/17 07:43:06;;;;;;;6.60;5.68;;;;;;;27.49;46.04;101007.00;5045139;28;20034;-59
2022/08/17 07:48:24;;;;;;;5.78;5.28;;;;;;;27.49;46.10;101013.31;5045137;28;20037;-60
2022/08/17 07:50:51;;;;;;;6.40;5.20;;;;;;;27.48;46.02;101011.59;5011264;28;20394;-59
2022/08/17 07:53:21;;;;;;;6.10;5.57;;;;;;;27.48;45.97;101022.53;5045310;28;20053;-59
2022/08/17 07:55:49;;;;;;;6.00;5.10;;;;;;;27.32;45.75;101002.09;5027557;28;20037;-59
2022/08/17 07:58:16;;;;;;;5.93;5.32;;;;;;;27.47;46.08;101023.59;5027553;28;20028;-59
2022/08/17 08:00:41;;;;;;;5.57;5.07;;;;;;;27.45;46.17;101020.28;5027532;28;20017;-60
2022/08/17 08:03:21;;;;;;;5.03;4.53;;;;;;;27.48;46.15;101022.53;5010700;28;20030;-60
2022/08/17 08:05:54;;;;;;;5.68;5.07;;;;;;;27.48;46.05;101018.97;5027396;28;20446;-60
2022/08/17 08:08:41;;;;;;;6.35;5.10;;;;;;;27.49;46.12;101015.19;5027347;28;20032;-60
2022/08/17 08:11:35;;;;;;;5.85;4.65;;;;;;;27.49;46.04;101018.75;5007702;28;20022;-59
2022/08/17 08:14:21;;;;;;;5.32;4.82;;;;;;;27.49;45.94;101018.75;5025077;28;20026;-60
2022/08/17 08:16:59;;;;;;;5.97;5.35;;;;;;;27.49;45.88;101013.31;5008182;28;20029;-59
2022/08/17 08:19:27;;;;;;;4.78;4.38;;;;;;;27.49;45.79;101020.66;5007347;28;20022;-59
2022/08/17 08:22:01;;;;;;;6.43;5.22;;;;;;;27.48;46.21;101022.53;5007765;28;20041;-59
2022/08/17 08:24:59;;;;;;;5.25;4.75;;;;;;;27.49;46.15;101028.84;5007112;28;20018;-59
2022/08/17 08:27:49;;;;;;;5.25;4.75;;;;;;;27.49;46.21;101028.84;5021170;28;20098;-59
2022/08/17 08:30:18;;;;;;;5.43;4.93;;;;;;;27.49;46.12;101031.59;5007368;28;20033;-59
2022/08/17 08:32:55;;;;;;;5.03;4.53;;;;;;;27.49;46.01;101032.41;5007406;28;20022;-59
2022/08/17 08:35:33;;;;;;;5.28;4.70;;;;;;;27.50;46.30;101030.53;5025099;28;20496;-60
2022/08/17 08:38:25;;;;;;;5.90;5.10;;;;;;;27.50;46.39;101027.78;5007202;28;20044;-60
2022/08/17 08:41:28;;;;;;;5.68;5.18;;;;;;;27.50;46.30;101028.63;5024491;28;20022;-59
2022/08/17 08:44:13;;;;;;;5.63;5.07;;;;;;;27.50;46.09;101025.06;5024556;28;20153;-59
2022/08/17 08:46:58;;;;;;;5.65;5.10;;;;;;;27.50;46.08;101016.88;5025137;28;20479;-59
2022/08/17 08:49:39;;;;;;;5.70;5.10;;;;;;;27.50;46.33;101020.44;5024561;28;20042;-59
2022/08/17 08:52:29;;;;;;;6.30;5.20;;;;;;;27.31;46.24;100991.38;5007170;28;20061;-59
2022/08/17 08:55:03;;;;;;;5.93;5.28;;;;;;;27.37;46.44;101005.00;5024199;28;20068;-59
2022/08/17 08:57:35;;;;;;;6.50;5.15;;;;;;;27.51;46.53;101026.72;5028774;28;20025;-60
2022/08/17 09:00:17;;;;;;;4.95;4.50;;;;;;;27.47;46.25;101015.41;4994409;28;20429;-59
2022/08/17 09:03:01;;;;;;;6.00;5.32;;;;;;;27.52;46.60;101028.38;5011167;28;20025;-59
2022/08/17 09:05:52;;;;;;;5.53;5.03;;;;;;;27.52;46.32;101028.38;5028700;28;20017;-60
2022/08/17 09:08:39;;;;;;;4.93;4.53;;;;;;;27.52;46.37;101028.38;5028317;28;20029;-59
2022/08/17 09:11:29;;;;;;;5.70;5.20;;;;;;;27.50;46.71;101031.34;5040085;28;20029;-60
2022/08/17 09:14:05;;;;;;;5.22;4.80;;;;;;;27.34;46.65;101010.88;5048117;28;20025;-60
2022/08/17 09:16:34;;;;;;;5.70;5.20;;;;;;;27.35;46.60;101004.34;5030755;28;20036;-59
2022/08/17 09:19:07;;;;;;;5.55;5.05;;;;;;;27.37;46.75;101017.81;5030242;28;20026;-59
2022/08/17 09:22:16;;;;;;;4.80;4.40;;;;;;;27.54;46.55;101043.50;5030521;28;20040;-59
2022/08/17 09:24:59;;;;;;;4.82;4.43;;;;;;;27.55;46.79;101038.88;4988340;28;20550;-60
2022/08/17 09:27:40;;;;;;;4.88;4.47;;;;;;;27.38;46.73;101020.31;5030632;28;20137;-60
2022/08/17 09:30:08;;;;;;;4.95;4.53;;;;;;;27.55;46.62;101055.25;5047459;28;20018;-60
2022/08/17 09:32:41;;;;;;;5.78;4.78;;;;;;;27.55;46.68;101047.91;5030229;28;20352;-59
2022/08/17 09:35:15;;;;;;;5.07;4.57;;;;;;;27.54;46.80;101040.78;5047705;28;20022;-59
2022/08/17 09:37:59;;;;;;;5.00;4.60;;;;;;;27.50;46.43;101033.25;5029963;28;20231;-59
2022/08/17 09:40:58;;;;;;;5.13;4.65;;;;;;;27.56;46.59;101035.91;5029524;28;20030;-60
2022/08/17 09:44:08;;;;;;;4.90;4.50;;;;;;;27.56;46.62;101035.91;5047743;28;20136;-59
2022/08/17 09:46:37;;;;;;;4.45;4.05;;;;;;;27.55;46.64;101028.78;5003597;28;20039;-59
2022/08/17 09:49:29;;;;;;;4.63;4.22;;;;;;;27.57;46.38;101032.13;5047208;28;20040;-59
2022/08/17 09:51:59;;;;;;;4.68;4.28;;;;;;;27.57;46.27;101026.69;5029790;28;20038;-60
2022/08/17 09:54:26;;;;;;;5.20;4.20;;;;;;;27.58;46.55;101033.81;5029275;28;20046;-59
2022/08/17 09:57:03;;;;;;;6.35;4.88;;;;;;;27.39;46.36;100999.28;5029735;28;20476;-60
2022/08/17 09:59:47;;;;;;;4.53;4.13;;;;;;;27.49;46.51;101015.19;5029614;28;20032;-60
2022/08/17 10:02:32;;;;;;;4.78;4.35;;;;;;;27.58;46.27;101027.50;5013576;28;20026;-60
2022/08/17 10:05:08;;;;;;;4.53;4.13;;;;;;;27.59;46.42;101027.28;5047420;28;20047;-60
2022/08/17 10:08:08;;;;;;;5.40;4.68;;;;;;;27.59;46.45;101032.75;5028447;28;20033;-60
2022/08/17 10:10:58;;;;;;;4.60;4.20;;;;;;;27.60;46.42;101039.88;5038957;28;20026;-59
2022/08/17 10:13:34;;;;;;;5.22;4.72;;;;;;;27.58;46.23;101042.00;5009571;28;20046;-60
2022/08/17 10:16:13;;;;;;;5.10;4.60;;;;;;;27.41;46.49;101008.13;5027323;28;20030;-60
2022/08/17 10:19:00;;;;;;;4.50;4.10;;;;;;;27.58;46.58;101035.69;5009576;28;20025;-60
2022/08/17 10:27:03;;;;;;;4.70;4.30;;;;;;;27.57;46.10;101029.41;5012141;28;20181;-60
2022/08/17 10:29:42;;;;;;;4.40;4.00;;;;;;;27.57;46.34;101026.69;5009162;28;20072;-60
2022/08/17 10:32:10;;;;;;;4.97;4.35;;;;;;;27.56;46.42;101024.97;4993230;28;20018;-60
2022/08/17 10:34:57;;;;;;;4.20;3.80;;;;;;;27.56;46.24;101022.25;5009372;28;20026;-59
2022/08/17 10:37:32;;;;;;;4.97;4.57;;;;;;;27.56;46.09;101015.94;5026818;28;20377;-60
2022/08/17 10:41:05;;;;;;;4.85;4.45;;;;;;;27.56;46.44;101014.06;5026417;28;20034;-59
2022/08/17 10:43:43;;;;;;;5.10;4.60;;;;;;;27.56;46.27;101021.41;4915464;29;20048;-58
2022/08/17 10:46:21;;;;;;;6.07;4.40;;;;;;;27.36;46.36;100986.13;4912476;29;20056;-59
2022/08/17 10:49:20;;;;;;;4.65;4.25;;;;;;;27.56;46.27;101013.22;4911343;29;20064;-59
2022/08/17 10:51:47;;;;;;;5.03;4.55;;;;;;;27.55;46.05;101011.56;4927958;29;20024;-60
2022/08/17 10:54:24;;;;;;;5.32;4.72;;;;;;;27.55;46.36;101012.38;4927197;29;20063;-60
2022/08/17 10:56:51;;;;;;;4.85;4.35;;;;;;;27.55;46.48;101017.84;4927712;29;20032;-59
2022/08/17 10:59:34;;;;;;;4.80;4.38;;;;;;;27.56;46.56;101014.06;4927442;29;20043;-60
2022/08/17 11:01:59;;;;;;;5.10;4.60;;;;;;;27.54;46.65;101005.25;4911427;29;20446;-60
2022/08/17 11:04:46;;;;;;;5.15;4.60;;;;;;;27.56;46.52;101002.31;4927431;29;20039;-59
2022/08/17 11:07:42;;;;;;;5.63;4.63;;;;;;;27.54;46.78;100997.06;4927548;29;20087;-59
2022/08/17 11:10:41;;;;;;;4.90;4.40;;;;;;;27.56;46.71;100996.84;4930762;29;20028;-59
2022/08/17 11:13:09;;;;;;;4.75;4.22;;;;;;;27.55;46.59;101000.63;4947044;28;20026;-59
2022/08/17 11:15:57;;;;;;;4.82;4.38;;;;;;;27.55;46.68;100997.91;5008726;28;20029;-60
2022/08/17 11:18:49;;;;;;;5.57;4.90;;;;;;;27.55;46.56;101003.38;5008110;28;20491;-60
2022/08/17 11:21:26;;;;;;;5.35;4.85;;;;;;;27.54;46.70;101010.72;5026076;28;20129;-59
2022/08/17 11:24:02;;;;;;;5.07;4.63;;;;;;;27.54;46.57;101016.19;5025636;28;20459;-59
2022/08/17 11:26:30;;;;;;;5.13;4.63;;;;;;;27.34;46.45;100986.31;5025998;28;20145;-60
2022/08/17 11:29:00;;;;;;;4.97;4.57;;;;;;;27.56;46.61;101018.69;5025938;28;20025;-60
2022/08/17 11:31:36;;;;;;;5.53;5.03;;;;;;;27.55;46.42;101014.28;5024696;28;20052;-60
2022/08/17 11:34:03;;;;;;;5.18;4.68;;;;;;;27.55;46.48;101015.13;5008213;28;20097;-60
2022/08/17 11:36:38;;;;;;;4.78;4.25;;;;;;;27.40;46.36;100999.09;5025892;28;20136;-60
2022/08/17 11:39:24;;;;;;;5.15;4.65;;;;;;;27.55;46.41;101019.75;5007859;28;20112;-59
2022/08/17 11:42:04;;;;;;;5.07;4.68;;;;;;;27.56;46.34;101015.94;5025601;28;20104;-58
2022/08/17 11:44:44;;;;;;;5.07;4.57;;;;;;;27.56;46.56;101026.88;5008071;28;20026;-59
2022/08/17 11:52:56;;;;;;;5.43;4.93;;;;;;;27.39;46.29;101032.06;5010246;28;20056;-60
2022/08/17 11:55:27;;;;;;;5.60;5.10;;;;;;;27.56;46.33;101054.19;5007587;28;20117;-60
2022/08/17 11:58:00;;;;;;;6.40;4.88;;;;;;;27.55;46.53;101053.34;5025557;28;20022;-60
2022/08/17 12:00:43;;;;;;;5.22;4.65;;;;;;;27.57;46.41;101050.41;5025258;28;20164;-60
2022/08/17 12:03:25;;;;;;;6.00;4.97;;;;;;;27.55;46.30;101056.09;5025242;28;20034;-60
2022/08/17 12:06:03;;;;;;;5.35;4.85;;;;;;;27.55;46.44;101058.81;5025337;28;20028;-60
2022/08/17 12:08:32;;;;;;;4.65;4.25;;;;;;;27.54;46.31;101062.63;4991154;28;20030;-60
2022/08/17 12:11:05;;;;;;;4.82;4.43;;;;;;;27.51;46.26;101051.31;5015129;28;20018;-60
2022/08/17 12:13:36;;;;;;;4.85;4.40;;;;;;;27.55;46.19;101066.19;5024938;28;20331;-60
2022/08/17 12:16:02;;;;;;;5.82;4.88;;;;;;;27.35;46.45;101034.41;5025296;28;20041;-60
2022/08/17 12:18:32;;;;;;;6.28;4.72;;;;;;;27.54;46.40;101062.63;5025209;28;20030;-60